Time;durP1;ratioP1;P1;durP2;ratioP2;P2;SDS_P1;SDS_P2;PMS_P1;PMS_P2;Temp;Humidity;BMP_temperature;BMP_pressure;BME280_temperature;BME280_humidity;BME280_pressure;Samples;Min_cycle;Max_cycle;Signal;HPM_P1;HPM_P2
2021/01/04 00:02:24;;;;;;;122.97;64.27;;;;;;;2.98;75.30;98825.03;119882;1150;104354;-68
2021/01/04 00:05:15;;;;;;;125.90;64.40;;;;;;;2.96;75.41;98818.98;120879;1150;104415;-69
2021/01/04 00:08:07;;;;;;;111.03;59.35;;;;;;;2.95;75.10;98819.91;119964;1150;104358;-68
2021/01/04 00:11:12;;;;;;;108.77;60.23;;;;;;;2.92;75.35;98801.66;120475;1150;105028;-68
2021/01/04 00:13:57;;;;;;;;;;;;;;;2.90;74.95;98797.37;119858;1151;104460;-67
2021/01/04 00:16:41;;;;;;;105.80;53.43;;;;;;;2.85;74.54;98794.97;119940;1151;104390;-68
2021/01/04 00:19:15;;;;;;;91.82;48.85;;;;;;;2.82;75.12;98800.36;120039;1151;104482;-65
2021/01/04 00:21:44;;;;;;;84.67;45.90;;;;;;;2.79;74.70;98798.73;119982;1151;104405;-68
2021/01/04 00:24:40;;;;;;;80.63;44.63;;;;;;;2.77;74.57;98792.70;120037;1151;104451;-68
2021/01/04 00:27:36;;;;;;;90.07;49.60;;;;;;;2.80;74.88;98805.70;119861;1151;104926;-68
2021/01/04 00:30:22;;;;;;;103.10;53.60;;;;;;;2.80;74.79;98812.71;119910;1151;104423;-69
2021/01/04 00:32:51;;;;;;;100.07;54.90;;;;;;;2.80;75.60;98823.22;119965;1151;105484;-69
2021/01/04 00:35:23;;;;;;;98.77;52.07;;;;;;;2.81;74.94;98824.92;120214;1150;104452;-67
2021/01/04 00:38:13;;;;;;;105.23;53.07;;;;;;;2.80;75.15;98815.33;120110;1151;104372;-68
2021/01/04 00:40:40;;;;;;;91.77;49.87;;;;;;;2.76;75.21;98814.63;120033;1150;104351;-69
2021/01/04 00:43:19;;;;;;;76.43;42.40;;;;;;;2.72;75.04;98809.56;120045;1151;104448;-69
2021/01/04 00:45:49;;;;;;;73.23;38.90;;;;;;;2.65;74.72;98812.46;120660;1150;104371;-69
2021/01/04 00:48:38;;;;;;;71.60;38.57;;;;;;;2.64;75.13;98823.92;119867;1151;104503;-71
2021/01/04 00:51:18;;;;;;;67.00;36.27;;;;;;;2.63;75.43;98823.97;120504;1150;104519;-71
2021/01/04 00:53:48;;;;;;;69.07;36.37;;;;;;;2.63;74.58;98822.21;119809;1150;104441;-70
2021/01/04 00:56:32;;;;;;;72.75;40.80;;;;;;;2.63;74.58;98829.22;119867;1150;104491;-68
2021/01/04 00:59:13;;;;;;;65.00;35.30;;;;;;;2.62;75.56;98833.63;120524;1150;104348;-68
2021/01/04 01:01:42;;;;;;;86.43;43.03;;;;;;;2.64;74.65;98833.55;121261;1150;104372;-69
2021/01/04 01:04:28;;;;;;;79.45;41.95;;;;;;;2.66;74.94;98834.34;119928;1151;104972;-68
2021/01/04 01:07:14;;;;;;;77.73;41.53;;;;;;;2.62;75.02;98833.63;119753;1151;104361;-68
2021/01/04 01:09:53;;;;;;;;;;;;;;;2.59;75.21;98832.90;122003;1150;103139;-69
2021/01/04 01:12:39;;;;;;;75.90;41.30;;;;;;;2.56;74.89;98827.78;121963;1150;104447;-68
2021/01/04 01:15:18;;;;;;;78.40;42.23;;;;;;;2.55;74.78;98826.94;119958;1151;104466;-69
2021/01/04 01:18:15;;;;;;;76.57;42.30;;;;;;;2.57;75.63;98821.61;119819;1150;104433;-67
2021/01/04 01:20:53;;;;;;;82.83;43.63;;;;;;;2.56;75.03;98809.39;119908;1151;104553;-68
2021/01/04 01:23:24;;;;;;;76.77;40.13;;;;;;;2.55;75.28;98808.56;120376;1150;104368;-66
2021/01/04 01:25:57;;;;;;;74.33;38.53;;;;;;;2.55;75.19;98805.06;119722;1151;104481;-68
2021/01/04 01:28:37;;;;;;;71.10;37.87;;;;;;;2.52;74.50;98800.81;121921;1150;102316;-67
2021/01/04 01:31:08;;;;;;;67.13;39.30;;;;;;;2.54;75.32;98796.34;122105;1150;103088;-68
2021/01/04 01:33:41;;;;;;;61.40;35.87;;;;;;;2.53;74.60;98794.64;121703;1151;103182;-69
2021/01/04 01:36:21;;;;;;;68.57;39.00;;;;;;;2.44;74.77;98795.91;119916;1151;104513;-68
2021/01/04 01:39:10;;;;;;;66.43;34.00;;;;;;;2.35;75.11;98801.55;120006;1151;104462;-70
2021/01/04 01:41:57;;;;;;;70.50;36.95;;;;;;;2.15;74.92;98812.91;119888;1151;104354;-67
2021/01/04 01:44:38;;;;;;;69.60;38.03;;;;;;;1.97;74.52;98817.16;119856;1151;104393;-69
2021/01/04 01:47:34;;;;;;;73.47;38.50;;;;;;;1.84;74.95;98812.41;119904;1151;104447;-69
2021/01/04 01:50:25;;;;;;;73.47;39.67;;;;;;;1.75;74.68;98818.89;120045;1151;104404;-69
2021/01/04 01:53:11;;;;;;;70.63;38.07;;;;;;;1.70;74.57;98809.48;120610;1151;104383;-69
2021/01/04 01:56:33;;;;;;;71.80;39.75;;;;;;;1.68;74.95;98812.18;121706;1150;104351;-69
2021/01/04 01:59:09;;;;;;;72.37;36.90;;;;;;;1.67;75.04;98806.98;120013;1153;104687;-69
2021/01/04 02:02:17;;;;;;;73.23;39.20;;;;;;;1.67;74.79;98788.63;120821;1151;104443;-67
2021/01/04 02:05:00;;;;;;;72.30;37.90;;;;;;;1.72;75.03;98790.16;119988;1151;104455;-70
2021/01/04 02:07:41;;;;;;;64.87;35.55;;;;;;;1.76;75.72;98786.50;120008;1151;104356;-68
2021/01/04 02:10:21;;;;;;;67.97;36.10;;;;;;;1.84;75.30;98780.06;121384;1151;103179;-69
2021/01/04 02:13:09;;;;;;;70.30;37.95;;;;;;;1.93;75.25;98777.94;120138;1151;104572;-70
2021/01/04 02:16:00;;;;;;;63.10;33.70;;;;;;;2.02;75.63;98774.06;120034;1151;104426;-70
2021/01/04 02:18:33;;;;;;;57.97;30.63;;;;;;;2.12;75.93;98779.76;120007;1151;104457;-68
2021/01/04 02:21:16;;;;;;;60.50;32.10;;;;;;;2.20;75.96;98777.66;119937;1151;104607;-69
2021/01/04 02:24:04;;;;;;;58.43;32.93;;;;;;;2.28;75.70;98779.11;120732;1150;101933;-67
2021/01/04 02:26:35;;;;;;;60.83;33.03;;;;;;;2.36;75.59;98784.89;120048;1151;104359;-69
2021/01/04 02:29:07;;;;;;;52.70;28.40;;;;;;;2.43;75.34;98790.70;120003;1151;104446;-70
2021/01/04 02:31:40;;;;;;;52.63;28.13;;;;;;;2.46;75.84;98791.41;120137;1150;104356;-69
2021/01/04 02:34:12;;;;;;;47.90;26.90;;;;;;;2.51;75.73;98788.61;120154;1150;104452;-70
2021/01/04 02:36:57;;;;;;;52.20;27.37;;;;;;;2.58;75.71;98805.80;120100;1151;104426;-70
2021/01/04 02:40:02;;;;;;;53.53;29.30;;;;;;;2.64;75.66;98796.79;119927;1151;104531;-69
2021/01/04 02:42:33;;;;;;;;;;;;;;;2.71;76.09;98803.48;119966;1151;104460;-67
2021/01/04 02:45:14;;;;;;;38.70;18.47;;;;;;;2.75;75.44;98801.55;120046;1151;104364;-71
2021/01/04 02:47:53;;;;;;;38.83;21.00;;;;;;;2.81;75.79;98806.53;120063;1151;104458;-65
2021/01/04 02:50:35;;;;;;;32.87;16.47;;;;;;;2.89;76.14;98800.92;119992;1151;104420;-67
2021/01/04 02:53:41;;;;;;;31.13;16.57;;;;;;;2.94;75.97;98791.93;119966;1151;104524;-69
2021/01/04 02:56:40;;;;;;;27.05;12.65;;;;;;;3.01;75.80;98800.38;119949;1151;104395;-69
2021/01/04 02:59:36;;;;;;;30.50;14.83;;;;;;;3.06;76.00;98785.25;120021;1151;104440;-69
2021/01/04 03:02:19;;;;;;;27.57;13.63;;;;;;;3.11;75.90;98788.52;120024;1151;104474;-66
2021/01/04 03:04:47;;;;;;;28.70;13.15;;;;;;;3.16;76.04;98788.29;120091;1150;104388;-69
2021/01/04 03:07:21;;;;;;;26.67;12.20;;;;;;;3.19;76.26;98792.57;120104;1150;104596;-68
2021/01/04 03:09:51;;;;;;;26.07;13.08;;;;;;;3.23;76.19;98792.34;122232;1151;101981;-66
2021/01/04 03:12:26;;;;;;;28.57;14.17;;;;;;;3.28;76.34;98784.23;120578;1150;104351;-66
2021/01/04 03:15:21;;;;;;;31.90;14.70;;;;;;;3.34;76.31;98796.25;119939;1151;104379;-68
2021/01/04 03:18:05;;;;;;;27.03;12.13;;;;;;;3.38;75.78;98798.65;120010;1151;104448;-69
2021/01/04 03:20:33;;;;;;;;;;;;;;;3.38;76.06;98801.28;120179;1150;104343;-68
2021/01/04 03:23:03;;;;;;;26.87;13.77;;;;;;;3.38;75.51;98803.07;120022;1151;104377;-70
2021/01/04 03:25:41;;;;;;;23.50;10.93;;;;;;;3.37;75.66;98796.11;120086;1150;104380;-68
2021/01/04 03:28:23;;;;;;;25.73;11.90;;;;;;;3.37;75.90;98801.36;120047;1151;104448;-67
2021/01/04 03:30:54;;;;;;;27.13;11.87;;;;;;;3.35;76.22;98800.58;120181;1150;104476;-68
2021/01/04 03:33:23;;;;;;;26.43;13.27;;;;;;;3.34;75.65;98802.34;120083;1151;104599;-68
2021/01/04 03:35:53;;;;;;;26.43;12.90;;;;;;;3.36;76.33;98799.66;119951;1151;104463;-68
2021/01/04 03:38:22;;;;;;;25.93;12.23;;;;;;;3.38;76.36;98809.16;119998;1151;106175;-70
2021/01/04 03:40:52;;;;;;;22.90;9.97;;;;;;;3.42;75.97;98808.09;120627;1150;104377;-70
2021/01/04 03:43:19;;;;;;;24.60;12.10;;;;;;;3.47;76.82;98799.98;120189;1151;104450;-69
2021/01/04 03:45:46;;;;;;;24.87;10.73;;;;;;;3.51;76.56;98812.05;120073;1151;104513;-68
2021/01/04 03:48:19;;;;;;;23.90;10.30;;;;;;;3.56;76.46;98807.44;120119;1150;104368;-70
2021/01/04 03:50:46;;;;;;;23.83;11.23;;;;;;;3.62;76.16;98810.70;120023;1151;104375;-70
2021/01/04 03:53:13;;;;;;;21.67;10.30;;;;;;;3.64;76.32;98808.84;119895;1151;104450;-69
2021/01/04 03:55:44;;;;;;;21.67;10.80;;;;;;;3.67;76.52;98816.59;119926;1151;104454;-70
2021/01/04 03:58:13;;;;;;;24.03;10.73;;;;;;;3.70;76.18;98817.28;120101;1151;104866;-68
2021/01/04 04:00:40;;;;;;;23.00;10.37;;;;;;;3.72;76.12;98817.22;120058;1151;104474;-68
2021/01/04 04:03:10;;;;;;;22.00;10.07;;;;;;;3.72;76.49;98818.06;120086;1151;104484;-69
2021/01/04 04:05:37;;;;;;;23.50;11.07;;;;;;;3.73;75.84;98818.92;120083;1151;104361;-68
2021/01/04 04:08:06;;;;;;;24.47;11.03;;;;;;;3.69;76.07;98812.94;120011;1150;104872;-70
2021/01/04 04:10:37;;;;;;;20.47;9.70;;;;;;;3.65;76.61;98816.67;120916;1151;104406;-69
2021/01/04 04:13:04;;;;;;;20.97;9.47;;;;;;;3.60;75.94;98817.80;119939;1151;104387;-68
2021/01/04 04:15:31;;;;;;;22.22;9.63;;;;;;;3.56;75.96;98822.38;119984;1151;104386;-68
2021/01/04 04:17:58;;;;;;;20.53;9.97;;;;;;;3.54;76.77;98814.54;119885;1151;104372;-68
2021/01/04 04:20:27;;;;;;;20.57;9.20;;;;;;;3.54;76.49;98809.28;119994;1151;104449;-69
2021/01/04 04:22:57;;;;;;;20.90;9.83;;;;;;;3.54;76.43;98805.81;120060;1151;104480;-68
2021/01/04 04:25:27;;;;;;;21.53;9.63;;;;;;;3.56;76.54;98801.33;120052;1151;104454;-69
2021/01/04 04:27:58;;;;;;;21.93;9.50;;;;;;;3.58;76.55;98799.48;120091;1150;104383;-69
2021/01/04 04:30:28;;;;;;;19.23;8.77;;;;;;;3.61;76.41;98796.70;120144;1150;104430;-69
2021/01/04 04:32:59;;;;;;;21.73;9.13;;;;;;;3.63;76.68;98800.12;120083;1151;104381;-68
2021/01/04 04:35:30;;;;;;;20.43;9.33;;;;;;;3.68;76.36;98805.98;120072;1151;104348;-68
2021/01/04 04:37:59;;;;;;;20.53;9.80;;;;;;;3.73;76.94;98797.88;120037;1151;104398;-69
2021/01/04 04:40:34;;;;;;;18.97;8.27;;;;;;;3.76;76.45;98802.13;119985;1151;104355;-70
2021/01/04 04:43:13;;;;;;;19.60;9.07;;;;;;;3.77;76.99;98803.83;120002;1150;104952;-70
2021/01/04 04:45:43;;;;;;;19.30;8.65;;;;;;;3.79;77.03;98792.32;119979;1151;104921;-69
2021/01/04 04:48:22;;;;;;;20.85;9.30;;;;;;;3.82;76.37;98784.28;120658;1150;104375;-67
2021/01/04 04:51:31;;;;;;;22.33;10.17;;;;;;;3.85;76.53;98792.02;120607;1151;104447;-67
2021/01/04 04:54:12;;;;;;;20.67;8.87;;;;;;;3.87;76.59;98803.30;119939;1151;104390;-68
2021/01/04 04:56:51;;;;;;;31.07;16.97;;;;;;;3.86;76.21;98809.52;120610;1151;104348;-68
2021/01/04 04:59:43;;;;;;;59.37;35.33;;;;;;;3.79;76.31;98800.22;120150;1151;104445;-68
2021/01/04 05:02:40;;;;;;;69.17;40.20;;;;;;;3.73;76.32;98798.72;120028;1151;104320;-68
2021/01/04 05:05:39;;;;;;;60.60;37.40;;;;;;;3.69;76.23;98799.80;120040;1151;104476;-69
2021/01/04 05:08:28;;;;;;;65.23;38.73;;;;;;;3.58;76.51;98792.43;120016;1151;104370;-67
2021/01/04 05:10:59;;;;;;;65.90;38.95;;;;;;;3.51;76.42;98803.33;120045;1150;104481;-68
2021/01/04 05:13:38;;;;;;;57.87;34.67;;;;;;;3.43;75.62;98801.08;120089;1150;104356;-68
2021/01/04 05:16:16;;;;;;;64.70;39.33;;;;;;;3.38;76.64;98803.07;120101;1150;104553;-67
2021/01/04 05:19:22;;;;;;;34.93;18.63;;;;;;;3.27;76.33;98814.06;120043;1150;104372;-69
2021/01/04 05:22:08;;;;;;;21.63;9.13;;;;;;;3.16;76.55;98803.22;120111;1150;104423;-67
2021/01/04 05:25:25;;;;;;;36.47;19.17;;;;;;;3.10;76.58;98802.58;120139;1150;104441;-68
2021/01/04 05:28:31;;;;;;;57.43;33.73;;;;;;;3.09;76.56;98803.50;119727;1151;104455;-68
2021/01/04 05:31:44;;;;;;;58.45;33.50;;;;;;;3.04;75.99;98805.48;120036;1151;104396;-68
2021/01/04 05:34:35;;;;;;;58.80;33.10;;;;;;;2.98;75.84;98811.02;120025;1151;104394;-69
2021/01/04 05:37:09;;;;;;;58.90;34.17;;;;;;;2.92;76.07;98820.05;120062;1151;104462;-68
2021/01/04 05:40:03;;;;;;;69.33;35.03;;;;;;;2.91;76.10;98826.22;120014;1151;104488;-68
2021/01/04 05:42:58;;;;;;;59.63;32.80;;;;;;;2.85;75.59;98829.13;120102;1151;104396;-68
2021/01/04 05:45:47;;;;;;;61.20;29.83;;;;;;;2.70;75.98;98840.30;121151;1151;104536;-69
2021/01/04 05:48:51;;;;;;;57.60;28.80;;;;;;;2.59;76.49;98846.90;120124;1150;104523;-70
2021/01/04 05:51:29;;;;;;;60.47;33.40;;;;;;;2.55;76.49;98836.58;120017;1151;104377;-68
2021/01/04 05:53:56;;;;;;;60.00;34.33;;;;;;;2.49;76.32;98819.33;119891;1151;104471;-69
2021/01/04 05:56:28;;;;;;;64.43;37.87;;;;;;;2.44;76.42;98827.41;120062;1151;104436;-69
2021/01/04 05:59:14;;;;;;;68.20;40.07;;;;;;;2.41;76.25;98838.05;119999;1151;104528;-68
2021/01/04 06:01:48;;;;;;;70.90;39.30;;;;;;;2.36;76.26;98847.89;119808;1151;104375;-68
2021/01/04 06:04:26;;;;;;;69.20;39.47;;;;;;;2.32;75.98;98843.68;119901;1151;104437;-68
2021/01/04 06:07:07;;;;;;;84.43;47.23;;;;;;;2.33;75.93;98837.52;120866;1150;104348;-69
2021/01/04 06:09:34;;;;;;;74.23;42.57;;;;;;;2.34;76.13;98834.81;120127;1151;104468;-68
2021/01/04 06:12:29;;;;;;;74.90;42.60;;;;;;;2.34;75.99;98841.84;120015;1151;104448;-67
2021/01/04 06:15:00;;;;;;;73.13;41.90;;;;;;;2.25;76.23;98837.81;119962;1150;104368;-67
2021/01/04 06:17:43;;;;;;;72.53;44.10;;;;;;;2.22;76.49;98851.94;120147;1151;104355;-68
2021/01/04 06:20:13;;;;;;;76.83;45.97;;;;;;;2.19;75.93;98852.06;120098;1150;104449;-66
2021/01/04 06:22:41;;;;;;;80.67;48.37;;;;;;;2.17;76.42;98853.06;120077;1151;104484;-69
2021/01/04 06:25:15;;;;;;;127.67;72.33;;;;;;;2.13;76.09;98852.31;120019;1151;104573;-69
2021/01/04 06:27:49;;;;;;;108.47;62.77;;;;;;;2.11;76.54;98853.31;120063;1150;104484;-69
2021/01/04 06:30:34;;;;;;;105.23;58.80;;;;;;;2.12;76.73;98855.02;120375;1151;104394;-69
2021/01/04 06:33:12;;;;;;;100.63;58.70;;;;;;;2.14;76.07;98854.02;120043;1151;104403;-68
2021/01/04 06:35:42;;;;;;;89.50;51.87;;;;;;;2.15;76.43;98847.86;120183;1151;104487;-69
2021/01/04 06:38:31;;;;;;;96.90;53.17;;;;;;;2.16;76.04;98853.98;119955;1151;104533;-69
2021/01/04 06:41:33;;;;;;;98.47;57.57;;;;;;;2.17;76.04;98863.55;119928;1151;104497;-70
2021/01/04 06:44:23;;;;;;;97.87;53.47;;;;;;;2.16;76.21;98864.47;119697;1151;104474;-69
2021/01/04 06:47:26;;;;;;;100.00;54.43;;;;;;;2.16;76.38;98861.84;122294;1150;101926;-68
2021/01/04 06:50:04;;;;;;;102.93;59.13;;;;;;;2.17;76.57;98869.64;119919;1151;104428;-69
2021/01/04 06:52:37;;;;;;;95.67;53.97;;;;;;;2.17;76.10;98859.14;120076;1150;104468;-68
2021/01/04 06:55:23;;;;;;;;;;;;;;;2.17;76.51;98864.39;119886;1151;104393;-68
2021/01/04 06:58:27;;;;;;;88.13;47.77;;;;;;;2.16;76.16;98867.94;120065;1151;104496;-68
2021/01/04 07:01:36;;;;;;;83.57;47.90;;;;;;;2.21;76.62;98858.10;120134;1150;104464;-68
2021/01/04 07:04:26;;;;;;;81.77;44.73;;;;;;;2.26;76.82;98870.19;120243;1151;104850;-70
2021/01/04 07:07:02;;;;;;;75.40;45.27;;;;;;;2.28;76.04;98868.34;120087;1150;104348;-69
2021/01/04 07:09:58;;;;;;;81.07;44.50;;;;;;;2.29;76.77;98870.89;119849;1151;104426;-68
2021/01/04 07:13:06;;;;;;;80.50;47.03;;;;;;;2.31;75.93;98865.59;120374;1150;104348;-68
2021/01/04 07:16:03;;;;;;;86.20;49.75;;;;;;;2.29;76.31;98873.52;119805;1151;104643;-68
2021/01/04 07:18:51;;;;;;;102.45;55.65;;;;;;;2.30;76.36;98861.27;119622;1151;104348;-69
2021/01/04 07:21:43;;;;;;;122.60;70.73;;;;;;;2.29;76.56;98856.94;119974;1150;104511;-69
2021/01/04 07:24:27;;;;;;;138.47;75.23;;;;;;;2.30;76.27;98856.02;119808;1149;104484;-69
2021/01/04 07:27:09;;;;;;;122.50;68.00;;;;;;;2.31;76.63;98850.69;120476;1150;104355;-68
2021/01/04 07:29:56;;;;;;;119.33;56.93;;;;;;;2.33;76.05;98854.10;120101;1150;104458;-69
2021/01/04 07:32:53;;;;;;;117.10;54.00;;;;;;;2.34;76.15;98844.47;120118;1151;104465;-67
2021/01/04 07:35:40;;;;;;;117.63;56.77;;;;;;;2.35;76.35;98856.68;120051;1151;104347;-68
2021/01/04 07:38:22;;;;;;;109.93;54.07;;;;;;;2.37;76.66;98846.97;120082;1151;104458;-68
2021/01/04 07:40:57;;;;;;;110.27;54.77;;;;;;;2.41;76.59;98845.05;119851;1151;104852;-68
2021/01/04 07:43:40;;;;;;;108.33;55.77;;;;;;;2.45;76.13;98839.59;120396;1150;104402;-68
2021/01/04 07:46:09;;;;;;;112.57;56.40;;;;;;;2.51;75.71;98835.87;120101;1151;104521;-69
2021/01/04 07:48:55;;;;;;;122.23;63.40;;;;;;;2.55;76.74;98833.95;120024;1150;104452;-69
2021/01/04 07:52:00;;;;;;;117.50;66.77;;;;;;;2.59;76.67;98830.27;119828;1151;104348;-70
2021/01/04 07:54:37;;;;;;;125.50;68.63;;;;;;;2.60;76.21;98822.34;120547;1150;104450;-69
2021/01/04 07:57:41;;;;;;;117.20;68.20;;;;;;;2.64;76.82;98825.67;120709;1150;104455;-70
2021/01/04 08:00:43;;;;;;;124.33;69.30;;;;;;;2.72;77.03;98830.58;121310;1150;104346;-71
2021/01/04 08:03:28;;;;;;;136.97;72.97;;;;;;;2.78;76.90;98836.44;120095;1150;104549;-68
2021/01/04 08:06:02;;;;;;;149.70;78.30;;;;;;;2.86;76.20;98835.21;120025;1149;104449;-71
2021/01/04 08:08:45;;;;;;;136.90;72.47;;;;;;;2.94;76.36;98835.73;119908;1151;104473;-70
2021/01/04 08:11:32;;;;;;;125.53;68.27;;;;;;;3.02;76.68;98848.54;120037;1151;104521;-71
2021/01/04 08:14:24;;;;;;;99.07;57.57;;;;;;;3.08;76.23;98856.98;120121;1151;104353;-68
2021/01/04 08:17:12;;;;;;;97.03;57.20;;;;;;;3.16;76.72;98876.81;119994;1151;104535;-69
2021/01/04 08:19:42;;;;;;;96.17;56.10;;;;;;;3.22;76.87;98877.38;119870;1151;104400;-69
2021/01/04 08:22:24;;;;;;;100.50;58.30;;;;;;;3.27;76.14;98872.77;119758;1151;104365;-70
2021/01/04 08:25:07;;;;;;;97.17;56.53;;;;;;;3.33;76.69;98871.63;122310;1150;102218;-67
2021/01/04 08:28:01;;;;;;;101.33;56.83;;;;;;;3.39;76.65;98881.02;120897;1150;104365;-68
2021/01/04 08:30:39;;;;;;;98.30;55.90;;;;;;;3.47;76.94;98881.50;120106;1151;104579;-69
2021/01/04 08:33:18;;;;;;;93.83;57.60;;;;;;;3.54;76.32;98890.81;120135;1149;104522;-69
2021/01/04 08:35:49;;;;;;;99.70;60.73;;;;;;;3.59;76.48;98887.98;120068;1151;104404;-70
2021/01/04 08:38:22;;;;;;;104.23;64.20;;;;;;;3.64;76.61;98901.77;120078;1151;104490;-72
2021/01/04 08:41:23;;;;;;;100.97;62.97;;;;;;;3.68;75.98;98899.84;119979;1151;104540;-69
2021/01/04 08:43:53;;;;;;;95.60;56.17;;;;;;;3.73;76.59;98903.95;120234;1151;104523;-70
2021/01/04 08:46:23;;;;;;;92.13;58.40;;;;;;;3.81;76.53;98902.73;120889;1150;104450;-69
2021/01/04 08:48:59;;;;;;;109.17;67.30;;;;;;;3.90;76.89;98901.44;120104;1151;104448;-69
2021/01/04 08:51:36;;;;;;;118.27;71.53;;;;;;;3.96;76.93;98890.63;120014;1151;104451;-66
2021/01/04 08:54:22;;;;;;;116.43;66.90;;;;;;;4.05;76.53;98897.23;119995;1151;104375;-70
2021/01/04 08:57:02;;;;;;;114.53;66.80;;;;;;;4.11;76.71;98881.12;119858;1151;104774;-68
2021/01/04 08:59:34;;;;;;;103.90;62.37;;;;;;;4.21;76.82;98871.84;119977;1151;104461;-69
2021/01/04 09:02:35;;;;;;;98.27;60.63;;;;;;;4.30;76.57;98858.23;119935;1149;104420;-69
2021/01/04 09:05:08;;;;;;;106.47;63.43;;;;;;;4.39;76.85;98859.53;119929;1151;104433;-73
2021/01/04 09:07:50;;;;;;;100.78;58.92;;;;;;;4.51;76.87;98865.95;120004;1151;104428;-68
2021/01/04 09:10:38;;;;;;;107.45;60.15;;;;;;;4.65;76.74;98867.04;120009;1151;104352;-70
2021/01/04 09:13:40;;;;;;;103.03;59.20;;;;;;;4.82;76.84;98869.66;119924;1151;104464;-71
2021/01/04 09:16:33;;;;;;;88.87;54.33;;;;;;;5.08;76.89;98869.22;120109;1151;104452;-69
2021/01/04 09:19:25;;;;;;;80.33;50.57;;;;;;;5.47;76.98;98871.47;120073;1151;104474;-72
2021/01/04 09:22:14;;;;;;;80.07;47.63;;;;;;;5.74;76.44;98860.30;120091;1151;104562;-71
2021/01/04 09:24:44;;;;;;;82.33;48.90;;;;;;;5.98;76.31;98865.16;120065;1151;104499;-70
2021/01/04 09:27:30;;;;;;;78.13;47.47;;;;;;;6.21;76.28;98855.94;119904;1151;104351;-70
2021/01/04 09:30:08;;;;;;;86.20;52.00;;;;;;;6.38;76.24;98851.44;119902;1150;104458;-71
2021/01/04 09:32:42;;;;;;;78.77;49.23;;;;;;;6.53;76.62;98855.83;122017;1150;102256;-69
2021/01/04 09:35:27;;;;;;;80.38;50.20;;;;;;;6.66;76.33;98855.94;120728;1151;103189;-73
2021/01/04 09:38:10;;;;;;;76.73;48.67;;;;;;;6.77;76.82;98863.22;120091;1151;104448;-71
2021/01/04 09:40:49;;;;;;;69.70;43.70;;;;;;;6.80;76.07;98867.48;120065;1151;104409;-73
2021/01/04 09:43:24;;;;;;;67.67;42.80;;;;;;;6.80;76.52;98863.03;120087;1151;104393;-72
2021/01/04 09:45:53;;;;;;;71.70;43.10;;;;;;;6.93;76.26;98857.01;119991;1151;104390;-70
2021/01/04 09:48:56;;;;;;;72.90;43.87;;;;;;;7.02;77.01;98858.23;120103;1151;104358;-72
2021/01/04 09:52:05;;;;;;;67.33;41.97;;;;;;;7.11;76.80;98869.12;120027;1151;105075;-70
2021/01/04 09:54:41;;;;;;;62.83;38.93;;;;;;;7.13;76.42;98864.55;119996;1151;104453;-70
2021/01/04 09:57:09;;;;;;;64.30;38.27;;;;;;;7.10;76.82;98859.48;119960;1151;104514;-71
2021/01/04 09:59:43;;;;;;;59.73;35.73;;;;;;;7.07;76.78;98859.67;120067;1151;104433;-72
2021/01/04 10:02:34;;;;;;;60.25;36.45;;;;;;;7.08;76.87;98853.44;120059;1151;104969;-71
2021/01/04 10:05:14;;;;;;;62.20;36.83;;;;;;;7.17;76.21;98852.00;119962;1151;104382;-72
2021/01/04 10:07:45;;;;;;;61.50;37.83;;;;;;;7.29;76.84;98840.66;120032;1151;104943;-69
2021/01/04 10:10:22;;;;;;;64.17;39.20;;;;;;;7.42;76.18;98843.37;119996;1151;104418;-73
2021/01/04 10:12:48;;;;;;;61.77;39.57;;;;;;;7.47;76.91;98843.08;120035;1149;104390;-70
2021/01/04 10:15:28;;;;;;;62.67;39.20;;;;;;;7.57;76.83;98846.84;120013;1151;104335;-71
2021/01/04 10:18:37;;;;;;;60.47;38.93;;;;;;;7.61;76.25;98839.55;120006;1151;104375;-71
2021/01/04 10:21:18;;;;;;;58.80;35.83;;;;;;;7.65;76.80;98830.45;119976;1151;104490;-77
2021/01/04 10:24:03;;;;;;;62.03;37.93;;;;;;;7.73;76.21;98829.98;120000;1151;104484;-74
2021/01/04 10:26:51;;;;;;;59.60;37.57;;;;;;;7.86;76.16;98824.73;119966;1151;104468;-73
2021/01/04 10:29:26;;;;;;;59.00;36.93;;;;;;;7.93;76.77;98818.09;120005;1151;104371;-72
2021/01/04 10:32:28;;;;;;;57.23;37.40;;;;;;;8.02;76.45;98814.80;120030;1151;104423;-71
2021/01/04 10:34:58;;;;;;;61.30;36.97;;;;;;;8.08;76.07;98810.05;119643;1151;104623;-71
2021/01/04 10:37:43;;;;;;;58.05;36.70;;;;;;;8.12;76.05;98809.77;120018;1151;104489;-73
2021/01/04 10:40:22;;;;;;;56.00;36.07;;;;;;;8.15;76.60;98806.88;119972;1151;104478;-72
2021/01/04 10:43:00;;;;;;;57.50;36.00;;;;;;;8.22;76.51;98804.70;120035;1151;104386;-71
2021/01/04 10:45:39;;;;;;;61.80;38.07;;;;;;;8.26;76.44;98808.84;120000;1151;104407;-73
2021/01/04 10:48:30;;;;;;;65.70;39.43;;;;;;;8.31;76.10;98798.78;119956;1151;104348;-73
2021/01/04 10:51:00;;;;;;;62.20;38.47;;;;;;;8.32;76.34;98800.48;119852;1151;104465;-72
2021/01/04 10:53:33;;;;;;;58.50;37.43;;;;;;;8.32;76.44;98800.48;119857;1151;104420;-73
2021/01/04 10:56:09;;;;;;;59.75;35.95;;;;;;;8.30;76.34;98797.08;119980;1151;104349;-71
2021/01/04 10:58:52;;;;;;;57.07;37.87;;;;;;;8.29;76.45;98800.69;119983;1150;104354;-70
2021/01/04 11:01:33;;;;;;;56.70;36.27;;;;;;;8.30;75.82;98797.08;119932;1151;104346;-69
2021/01/04 11:04:19;;;;;;;63.55;39.05;;;;;;;8.33;76.21;98791.58;119980;1151;104350;-73
2021/01/04 11:07:08;;;;;;;56.47;36.40;;;;;;;8.40;76.22;98793.78;119990;1151;104458;-72
2021/01/04 11:09:42;;;;;;;59.70;37.33;;;;;;;8.46;76.27;98793.37;119958;1151;104447;-74
2021/01/04 11:12:16;;;;;;;56.73;37.23;;;;;;;8.50;76.40;98792.23;119986;1149;104525;-73
2021/01/04 11:14:59;;;;;;;59.27;37.43;;;;;;;8.51;76.31;98790.45;119959;1151;104422;-72
2021/01/04 11:17:36;;;;;;;58.17;37.00;;;;;;;8.48;75.79;98778.20;120018;1151;104471;-71
2021/01/04 11:20:15;;;;;;;57.10;37.10;;;;;;;8.47;75.93;98771.20;120010;1151;104391;-71
2021/01/04 11:22:43;;;;;;;63.30;38.80;;;;;;;8.51;75.97;98779.84;120007;1150;104387;-71
2021/01/04 11:25:13;;;;;;;58.40;38.07;;;;;;;8.52;76.20;98774.42;119967;1151;104823;-70
2021/01/04 11:27:40;;;;;;;60.80;38.77;;;;;;;8.49;76.14;98771.98;119952;1151;104821;-70
2021/01/04 11:30:10;;;;;;;67.00;38.08;;;;;;;8.48;75.52;98772.91;120039;1151;104370;-69
2021/01/04 11:32:39;;;;;;;54.87;35.90;;;;;;;8.46;75.78;98778.33;119876;1151;104467;-68
2021/01/04 11:35:10;;;;;;;54.43;36.47;;;;;;;8.48;75.64;98778.20;119954;1151;104361;-69
2021/01/04 11:37:40;;;;;;;56.00;36.30;;;;;;;8.49;76.07;98772.84;119951;1151;104561;-67
2021/01/04 11:40:11;;;;;;;59.90;37.50;;;;;;;8.52;75.95;98773.59;119876;1151;104924;-69
2021/01/04 11:42:41;;;;;;;60.00;36.80;;;;;;;8.53;75.68;98773.47;119930;1151;104542;-69
2021/01/04 11:45:12;;;;;;;61.37;39.13;;;;;;;8.55;75.84;98762.78;119851;1151;104450;-67
2021/01/04 11:47:39;;;;;;;59.60;39.13;;;;;;;8.55;75.67;98760.13;119939;1151;104852;-69
2021/01/04 11:50:14;;;;;;;67.75;41.02;;;;;;;8.58;75.73;98760.75;119916;1151;104569;-69
2021/01/04 11:52:41;;;;;;;62.70;41.10;;;;;;;8.58;75.50;98755.45;120026;1151;104467;-69
2021/01/04 11:55:12;;;;;;;64.80;42.53;;;;;;;8.57;75.71;98752.89;119973;1151;104455;-68
2021/01/04 11:57:40;;;;;;;67.60;43.63;;;;;;;8.57;75.89;98756.41;119876;1151;104466;-71
2021/01/04 12:00:12;;;;;;;70.13;45.63;;;;;;;8.60;75.69;98752.68;119936;1151;104343;-70
2021/01/04 12:02:40;;;;;;;69.07;45.67;;;;;;;8.60;75.56;98752.68;120054;1151;104521;-70
2021/01/04 12:05:12;;;;;;;66.70;43.87;;;;;;;8.59;75.59;98743.89;119906;1151;104351;-71
2021/01/04 12:07:41;;;;;;;72.90;47.35;;;;;;;8.54;75.39;98747.83;119917;1151;104460;-71
2021/01/04 12:10:11;;;;;;;69.93;47.30;;;;;;;8.48;75.58;98755.25;119965;1151;104423;-70
2021/01/04 12:12:38;;;;;;;71.40;48.07;;;;;;;8.40;75.51;98748.73;119979;1151;104404;-70